Time;durP1;ratioP1;P1;durP2;ratioP2;P2;SDS_P1;SDS_P2;PMS_P1;PMS_P2;Temp;Humidity;BMP_temperature;BMP_pressure;BME280_temperature;BME280_humidity;BME280_pressure;Samples;Min_cycle;Max_cycle;Signal;HPM_P1;HPM_P2
2022/10/18 00:01:30;;;;;;;23.90;12.70;;;;;;;7.43;72.47;101037.54;102341;1291;22861;-59
2022/10/18 00:03:57;;;;;;;26.60;13.10;;;;;;;7.39;72.53;101034.66;102329;1307;139271;-59
2022/10/18 00:06:24;;;;;;;21.50;11.50;;;;;;;7.36;72.72;101033.23;102328;1283;22478;-59
2022/10/18 00:08:50;;;;;;;21.90;12.30;;;;;;;7.33;72.76;101030.47;102367;1283;139260;-59
2022/10/18 00:11:17;;;;;;;25.20;12.60;;;;;;;7.30;72.84;101023.74;102377;1307;24414;-60
2022/10/18 00:13:44;;;;;;;28.90;13.20;;;;;;;7.27;72.98;101017.29;102421;1299;27075;-58
2022/10/18 00:16:12;;;;;;;21.30;11.70;;;;;;;7.24;72.97;101013.21;102285;1301;138388;-59
2022/10/18 00:18:40;;;;;;;23.30;11.90;;;;;;;7.22;73.25;101015.27;106810;1300;22117;-59
2022/10/18 00:21:10;;;;;;;19.80;11.20;;;;;;;7.20;73.41;101016.02;106690;1293;138678;-59
2022/10/18 00:23:37;;;;;;;18.30;10.60;;;;;;;7.19;73.42;101014.38;106785;1302;22166;-59
2022/10/18 00:26:21;;;;;;;20.70;12.10;;;;;;;7.19;73.50;101008.33;106807;1300;23009;-59
2022/10/18 00:28:52;;;;;;;19.50;11.50;;;;;;;7.18;73.54;101006.03;106761;1295;22144;-58
2022/10/18 00:31:27;;;;;;;18.40;10.70;;;;;;;7.18;73.53;101004.61;106810;1301;22208;-59
2022/10/18 00:33:55;;;;;;;20.60;10.50;;;;;;;7.17;73.72;101000.31;106695;1302;140364;-59
2022/10/18 00:36:23;;;;;;;19.70;11.10;;;;;;;7.18;73.86;100998.61;106776;1294;22186;-59
2022/10/18 00:38:50;;;;;;;22.70;11.30;;;;;;;7.17;73.87;100996.73;106669;1302;139772;-60
2022/10/18 00:41:18;;;;;;;;;;;;;;;7.18;73.94;100995.42;106822;1302;23092;-58
2022/10/18 00:43:50;;;;;;;;;;;;;;;7.18;74.03;100993.56;106768;1301;22335;-59
2022/10/18 00:46:17;;;;;;;21.00;10.50;;;;;;;7.18;74.08;100993.36;106737;1284;124652;-59
2022/10/18 00:48:44;;;;;;;21.80;11.10;;;;;;;7.17;73.88;100992.60;106816;1300;23363;-59
2022/10/18 00:51:10;;;;;;;22.50;12.10;;;;;;;7.17;73.95;100993.64;106730;1294;138320;-59
2022/10/18 00:53:37;;;;;;;;;;;;;;;7.17;73.83;100991.46;106850;1301;22386;-59
2022/10/18 00:56:04;;;;;;;20.60;10.70;;;;;;;7.18;73.89;100988.38;106818;1301;22121;-59
2022/10/18 00:58:31;;;;;;;22.10;11.40;;;;;;;7.17;73.83;100990.05;106698;1302;137813;-60
2022/10/18 01:00:57;;;;;;;20.80;10.70;;;;;;;7.17;73.87;100984.25;106791;1286;22193;-59
2022/10/18 01:03:24;;;;;;;22.30;11.60;;;;;;;7.17;73.92;100989.30;106702;1302;138922;-59
2022/10/18 01:05:51;;;;;;;19.70;11.60;;;;;;;7.17;73.78;100985.92;106762;1300;23174;-59
2022/10/18 01:08:20;;;;;;;18.60;10.20;;;;;;;7.17;73.69;100983.92;106697;1302;139318;-59
2022/10/18 01:10:57;;;;;;;24.80;12.20;;;;;;;7.16;73.77;100981.58;106850;1299;22241;-59
2022/10/18 01:13:39;;;;;;;20.50;10.40;;;;;;;7.15;73.69;100979.73;106696;1302;22239;-59
2022/10/18 01:16:21;;;;;;;24.90;11.40;;;;;;;7.12;73.72;100975.88;106730;1300;139674;-59
2022/10/18 01:18:56;;;;;;;19.40;11.50;;;;;;;7.10;73.84;100973.44;106832;1302;23144;-59
2022/10/18 01:21:42;;;;;;;25.90;10.40;;;;;;;7.05;73.76;100964.83;106715;1284;141084;-59
2022/10/18 01:24:36;;;;;;;21.10;11.90;;;;;;;7.05;73.70;100966.84;106802;1302;22153;-59
2022/10/18 01:27:18;;;;;;;24.90;12.80;;;;;;;7.02;73.87;100962.36;106705;1300;138927;-59
2022/10/18 01:30:00;;;;;;;22.90;12.80;;;;;;;7.01;74.02;100961.48;106793;1302;22130;-59
2022/10/18 01:32:33;;;;;;;20.30;11.20;;;;;;;6.99;74.12;100959.38;106791;1293;138370;-58
2022/10/18 01:35:03;;;;;;;19.70;11.60;;;;;;;6.98;74.28;100960.08;106632;1304;22245;-59
2022/10/18 01:37:29;;;;;;;20.00;11.10;;;;;;;6.95;74.14;100956.02;106585;1302;22304;-59
2022/10/18 01:39:57;;;;;;;20.00;11.60;;;;;;;6.94;74.33;100955.88;106583;1302;139132;-60
2022/10/18 01:42:23;;;;;;;21.40;10.90;;;;;;;6.92;74.63;100950.46;106760;1295;22173;-61
2022/10/18 01:44:51;;;;;;;17.10;10.40;;;;;;;6.93;74.40;100947.66;106699;1303;138949;-60
2022/10/18 01:47:18;;;;;;;21.80;11.60;;;;;;;6.93;74.21;100945.00;106801;1292;22298;-60
2022/10/18 01:49:44;;;;;;;;;;;;;;;6.95;74.16;100944.00;106770;1302;22382;-60
2022/10/18 01:52:13;;;;;;;20.10;10.60;;;;;;;6.97;73.98;100943.19;106754;1300;123827;-61
2022/10/18 01:54:42;;;;;;;21.90;11.20;;;;;;;7.00;73.67;100939.95;106778;1300;22409;-60
2022/10/18 01:57:16;;;;;;;18.80;11.50;;;;;;;7.02;73.33;100935.30;106751;1300;137490;-61
2022/10/18 01:59:46;;;;;;;22.40;11.20;;;;;;;7.06;72.92;100931.73;106794;1301;22127;-61
2022/10/18 02:02:36;;;;;;;22.90;12.00;;;;;;;7.11;72.60;100928.84;106882;1300;22225;-61
2022/10/18 02:05:23;;;;;;;25.60;14.40;;;;;;;7.17;72.29;100922.70;106803;1292;22212;-62
2022/10/18 02:08:39;;;;;;;30.80;14.90;;;;;;;7.22;71.91;100919.80;106754;1302;22853;-62
2022/10/18 02:11:07;;;;;;;25.30;14.10;;;;;;;7.29;71.61;100915.04;106406;1306;22645;-61
2022/10/18 02:13:37;;;;;;;26.60;14.60;;;;;;;7.33;71.28;100908.17;106293;1305;22199;-61
2022/10/18 02:16:10;;;;;;;28.30;15.20;;;;;;;7.37;71.07;100908.88;106260;1306;138997;-61
2022/10/18 02:18:57;;;;;;;28.40;15.60;;;;;;;7.42;70.70;100911.58;106410;1306;22160;-59
2022/10/18 02:21:24;;;;;;;33.70;18.40;;;;;;;7.45;70.84;100904.51;106295;1300;140718;-61
2022/10/18 02:23:51;;;;;;;27.40;15.90;;;;;;;7.48;70.55;100900.30;106367;1306;22179;-60
2022/10/18 02:26:17;;;;;;;31.90;16.70;;;;;;;7.51;70.76;100897.16;106459;1306;22165;-60
2022/10/18 02:28:44;;;;;;;;;;;;;;;7.53;70.59;100893.42;106285;1303;22370;-61
2022/10/18 02:31:22;;;;;;;29.20;16.30;;;;;;;7.54;70.44;100891.52;106461;1291;23317;-60
2022/10/18 02:34:19;;;;;;;27.00;15.00;;;;;;;7.54;70.18;100886.66;106311;1307;138227;-60
2022/10/18 02:37:04;;;;;;;26.40;16.40;;;;;;;7.53;70.16;100885.70;106400;1306;22134;-60
2022/10/18 02:39:35;;;;;;;29.10;15.80;;;;;;;7.51;70.06;100885.65;105517;1308;138777;-64
2022/10/18 02:42:05;;;;;;;23.60;13.30;;;;;;;7.47;70.15;100887.62;101841;1291;22634;-64
2022/10/18 02:44:33;;;;;;;25.60;14.40;;;;;;;7.42;70.27;100888.05;101784;1313;138138;-64
2022/10/18 02:47:00;;;;;;;24.30;13.50;;;;;;;7.38;70.28;100885.33;106521;1301;22252;-64
2022/10/18 02:49:27;;;;;;;27.50;14.10;;;;;;;7.34;70.38;100887.66;106752;1287;22130;-65
2022/10/18 02:51:53;;;;;;;28.00;12.80;;;;;;;7.29;70.57;100888.17;106647;1301;138287;-64
2022/10/18 02:54:21;;;;;;;;;;;;;;;7.24;70.95;100891.98;106742;1301;23014;-65
2022/10/18 02:56:47;;;;;;;23.90;11.50;;;;;;;7.18;71.15;100890.98;106705;1300;126077;-65
2022/10/18 02:59:14;;;;;;;22.20;11.70;;;;;;;7.12;71.45;100889.69;106823;1302;22202;-65
2022/10/18 03:01:41;;;;;;;21.60;11.90;;;;;;;7.09;71.57;100881.95;106728;1301;22250;-65
2022/10/18 03:04:07;;;;;;;;;;;;;;;7.04;71.63;100872.86;106735;1302;139193;-65
2022/10/18 03:06:34;;;;;;;20.10;12.10;;;;;;;7.05;71.65;100871.87;106716;1301;23474;-65
2022/10/18 03:09:02;;;;;;;22.00;13.20;;;;;;;7.02;71.84;100872.06;106735;1301;138583;-65
2022/10/18 03:11:29;;;;;;;27.40;15.30;;;;;;;7.01;71.95;100868.55;106812;1301;22230;-65
2022/10/18 03:13:56;;;;;;;;;;;;;;;6.98;71.99;100856.73;106907;1300;22386;-64
2022/10/18 03:16:23;;;;;;;28.80;14.00;;;;;;;7.02;71.76;100857.90;106702;1301;124767;-64
2022/10/18 03:18:49;;;;;;;;;;;;;;;7.04;71.84;100851.73;106896;1300;23561;-65
2022/10/18 03:21:16;;;;;;;68.50;33.20;;;;;;;7.07;71.39;100849.64;106728;1300;123936;-65
2022/10/18 03:23:43;;;;;;;62.10;31.30;;;;;;;7.11;71.26;100850.87;106885;1300;23016;-65
2022/10/18 03:26:09;;;;;;;59.00;28.40;;;;;;;7.14;70.92;100844.34;106859;1300;22399;-65
2022/10/18 03:28:36;;;;;;;61.20;28.10;;;;;;;7.18;70.55;100846.32;106819;1300;138120;-64
2022/10/18 03:31:03;;;;;;;;;;;;;;;7.21;70.27;100838.56;106823;1301;22420;-65
2022/10/18 03:33:30;;;;;;;65.20;29.10;;;;;;;7.26;70.12;100842.52;106756;1300;123374;-65
2022/10/18 03:35:56;;;;;;;69.50;32.10;;;;;;;7.28;69.84;100839.46;106821;1301;22117;-65
2022/10/18 03:38:23;;;;;;;59.00;29.60;;;;;;;7.32;69.64;100839.48;106756;1300;137575;-65
2022/10/18 03:40:50;;;;;;;57.60;28.40;;;;;;;7.36;69.34;100835.56;103709;1302;23864;-64
2022/10/18 03:43:17;;;;;;;;;;;;;;;7.39;69.26;100840.77;102382;1307;22464;-64
2022/10/18 03:45:43;;;;;;;39.60;20.40;;;;;;;7.41;69.30;100841.66;102269;1309;123738;-64
2022/10/18 03:48:10;;;;;;;34.50;16.70;;;;;;;7.43;69.24;100841.92;102414;1307;22482;-64
2022/10/18 03:50:37;;;;;;;29.30;14.60;;;;;;;7.45;69.14;100842.64;102259;1309;138939;-64
2022/10/18 03:53:03;;;;;;;;;;;;;;;7.46;69.11;100843.02;102362;1287;22871;-64
2022/10/18 03:55:30;;;;;;;27.20;14.70;;;;;;;7.46;68.99;100844.11;102411;1301;22484;-64
2022/10/18 03:57:57;;;;;;;;;;;;;;;7.45;69.05;100839.34;102375;1286;138372;-64
2022/10/18 04:00:24;;;;;;;30.20;13.80;;;;;;;7.43;69.10;100834.33;102458;1307;22686;-64
2022/10/18 04:02:50;;;;;;;45.20;14.20;;;;;;;7.41;69.08;100835.16;102305;1301;139202;-63
2022/10/18 04:05:22;;;;;;;26.00;13.90;;;;;;;7.39;68.77;100828.59;102363;1301;22483;-64
2022/10/18 04:07:49;;;;;;;29.50;14.60;;;;;;;7.37;68.77;100825.92;102355;1303;22484;-64
2022/10/18 04:10:17;;;;;;;26.70;14.10;;;;;;;7.36;68.77;100822.67;102257;1301;137724;-65
2022/10/18 04:12:44;;;;;;;38.30;14.70;;;;;;;7.37;68.69;100821.66;102389;1292;22478;-65
2022/10/18 04:15:11;;;;;;;27.30;13.70;;;;;;;7.37;68.47;100820.53;102297;1294;137661;-65
2022/10/18 04:17:37;;;;;;;;;;;;;;;7.38;68.53;100821.00;102400;1308;22509;-65
2022/10/18 04:20:05;;;;;;;25.20;13.10;;;;;;;7.39;68.37;100816.87;102468;1307;25271;-63
2022/10/18 04:22:31;;;;;;;19.40;11.50;;;;;;;7.39;68.46;100810.66;102321;1292;137952;-62
2022/10/18 04:24:58;;;;;;;32.10;11.90;;;;;;;7.41;68.46;100803.23;102523;1301;22528;-65
2022/10/18 04:27:25;;;;;;;;;;;;;;;7.41;68.15;100797.94;102354;1304;137667;-65
2022/10/18 04:29:52;;;;;;;20.90;11.20;;;;;;;7.41;68.21;100795.61;102358;1307;24290;-65
2022/10/18 04:32:18;;;;;;;21.60;11.70;;;;;;;7.40;68.16;100804.20;102431;1309;22689;-65
2022/10/18 04:34:45;;;;;;;;;;;;;;;7.39;68.14;100803.45;102449;1295;24386;-65
2022/10/18 04:37:12;;;;;;;27.90;11.30;;;;;;;7.40;68.46;100803.40;102384;1285;24056;-65
2022/10/18 04:39:39;;;;;;;29.20;12.30;;;;;;;7.39;68.13;100802.07;102438;1286;138518;-67
2022/10/18 04:42:05;;;;;;;;;;;;;;;7.38;68.19;100792.59;102344;1308;22452;-68
2022/10/18 04:44:33;;;;;;;19.70;11.00;;;;;;;7.37;68.28;100788.37;102459;1286;124750;-67
2022/10/18 04:47:00;;;;;;;108.70;63.60;;;;;;;7.36;68.11;100782.80;102512;1308;22497;-66
2022/10/18 04:49:26;;;;;;;31.10;16.10;;;;;;;7.34;68.28;100779.34;102497;1285;22482;-68
2022/10/18 04:51:53;;;;;;;21.70;12.60;;;;;;;7.34;68.34;100781.60;102297;1294;138500;-68
2022/10/18 04:54:20;;;;;;;28.00;11.80;;;;;;;7.34;68.28;100787.95;102345;1301;22542;-68
2022/10/18 04:56:50;;;;;;;19.60;11.30;;;;;;;7.35;68.20;100783.91;102230;1301;138522;-69
2022/10/18 04:59:17;;;;;;;24.20;11.50;;;;;;;7.38;68.35;100780.66;102304;1294;22598;-69
2022/10/18 05:01:44;;;;;;;;;;;;;;;7.42;68.40;100781.14;102396;1301;24329;-70
2022/10/18 05:04:11;;;;;;;22.20;10.40;;;;;;;7.46;68.55;100778.86;102211;1299;124264;-70
2022/10/18 05:06:38;;;;;;;21.30;11.20;;;;;;;7.50;68.44;100778.56;102346;1299;25225;-69
2022/10/18 05:09:05;;;;;;;27.00;11.70;;;;;;;7.53;68.46;100771.63;102173;1301;138823;-69
2022/10/18 05:11:31;;;;;;;;;;;;;;;7.55;68.33;100767.76;102307;1293;25302;-69
2022/10/18 05:13:58;;;;;;;16.40;8.80;;;;;;;7.60;68.12;100764.64;102309;1277;22483;-69
2022/10/18 05:16:27;;;;;;;21.50;10.50;;;;;;;7.65;67.67;100764.92;102236;1293;138455;-70
2022/10/18 05:18:54;;;;;;;18.40;10.00;;;;;;;7.70;67.74;100763.92;102268;1285;22955;-69
2022/10/18 05:21:20;;;;;;;;;;;;;;;7.75;67.65;100769.82;102478;1309;138013;-78
2022/10/18 05:23:47;;;;;;;20.30;9.90;;;;;;;7.81;67.92;100768.25;102353;1308;25323;-70
2022/10/18 05:26:14;;;;;;;24.70;10.70;;;;;;;7.87;67.70;100767.84;102571;1307;25184;-70
2022/10/18 05:28:40;;;;;;;19.70;9.50;;;;;;;7.95;67.29;100771.48;102258;1296;137725;-69
2022/10/18 05:31:08;;;;;;;17.20;9.50;;;;;;;8.02;66.95;100771.96;102498;1285;25274;-69
2022/10/18 05:33:35;;;;;;;18.30;9.50;;;;;;;8.08;67.02;100772.08;102251;1285;137445;-73
2022/10/18 05:36:02;;;;;;;28.80;10.40;;;;;;;8.16;67.07;100772.69;102436;1307;24528;-69
2022/10/18 05:38:29;;;;;;;20.60;10.70;;;;;;;8.23;66.72;100772.67;106709;1299;138495;-69
2022/10/18 05:40:57;;;;;;;19.40;9.80;;;;;;;8.30;66.74;100772.17;103468;1302;22500;-69
2022/10/18 05:43:27;;;;;;;24.60;9.80;;;;;;;8.39;66.44;100775.00;102565;1292;25156;-67
2022/10/18 05:45:54;;;;;;;30.00;10.70;;;;;;;8.47;66.08;100772.33;102282;1291;138071;-67
2022/10/18 05:48:21;;;;;;;27.00;10.60;;;;;;;8.57;65.77;100768.31;102424;1304;22717;-69
2022/10/18 05:50:48;;;;;;;19.80;9.70;;;;;;;8.66;65.60;100769.70;102365;1307;139011;-68
2022/10/18 05:53:14;;;;;;;;;;;;;;;8.76;65.53;100769.48;102394;1303;23840;-71
2022/10/18 05:56:01;;;;;;;20.00;8.50;;;;;;;8.88;65.44;100769.56;102428;1286;22503;-70
2022/10/18 05:58:28;;;;;;;28.90;8.90;;;;;;;8.97;65.63;100773.15;102500;1284;138736;-70
2022/10/18 06:00:57;;;;;;;;;;;;;;;9.06;65.38;100774.45;102471;1294;23879;-70
2022/10/18 06:03:24;;;;;;;39.40;10.20;;;;;;;9.15;65.04;100773.93;106508;1304;123614;-70
2022/10/18 06:05:51;;;;;;;31.70;9.70;;;;;;;9.25;64.54;100773.34;106860;1299;22994;-70
2022/10/18 06:08:18;;;;;;;29.60;11.20;;;;;;;9.33;64.26;100776.27;106928;1300;22188;-70
2022/10/18 06:10:44;;;;;;;;;;;;;;;9.41;63.91;100777.61;106775;1299;138847;-70
2022/10/18 06:13:11;;;;;;;21.70;8.50;;;;;;;9.50;63.97;100781.13;106835;1299;22380;-70
2022/10/18 06:15:38;;;;;;;20.00;9.50;;;;;;;9.57;63.84;100781.36;106667;1287;139187;-70
2022/10/18 06:18:04;;;;;;;72.60;14.00;;;;;;;9.66;63.44;100783.89;106760;1293;23006;-71
2022/10/18 06:20:31;;;;;;;26.90;10.50;;;;;;;9.74;63.46;100780.48;106651;1299;138338;-70
2022/10/18 06:22:58;;;;;;;;;;;;;;;9.83;63.19;100775.86;106868;1302;22320;-71
2022/10/18 06:25:24;;;;;;;19.90;9.90;;;;;;;9.92;63.09;100776.60;106821;1299;23071;-70
2022/10/18 06:27:51;;;;;;;24.40;9.30;;;;;;;10.01;62.65;100773.27;106733;1299;138826;-71
2022/10/18 06:30:18;;;;;;;27.30;16.80;;;;;;;10.11;62.60;100770.38;106847;1296;22163;-69
2022/10/18 06:32:44;;;;;;;;;;;;;;;10.20;62.63;100773.01;106824;1299;138505;-69
2022/10/18 06:35:11;;;;;;;19.40;8.50;;;;;;;10.31;62.20;100769.13;106833;1299;22296;-69
2022/10/18 06:37:38;;;;;;;49.20;10.00;;;;;;;10.40;62.05;100765.66;106826;1299;22380;-69
2022/10/18 06:40:05;;;;;;;144.70;20.20;;;;;;;10.52;61.73;100764.38;106692;1299;138721;-65
2022/10/18 06:42:32;;;;;;;44.20;12.40;;;;;;;10.63;61.26;100760.17;106854;1300;22208;-65
2022/10/18 06:44:59;;;;;;;25.80;11.70;;;;;;;10.74;61.20;100759.40;106697;1299;137803;-65
2022/10/18 06:47:26;;;;;;;;;;;;;;;10.85;61.10;100757.83;106879;1300;22359;-70
2022/10/18 06:49:53;;;;;;;141.50;84.70;;;;;;;10.96;61.30;100757.31;106831;1283;22120;-67
2022/10/18 06:52:24;;;;;;;;;;;;;;;11.08;61.05;100753.21;106772;1300;139742;-67
2022/10/18 06:54:51;;;;;;;19.60;11.60;;;;;;;11.19;60.64;100754.56;106786;1291;22260;-67
2022/10/18 06:57:19;;;;;;;16.30;8.10;;;;;;;11.30;60.47;100749.27;106696;1299;138803;-67
2022/10/18 06:59:46;;;;;;;13.10;8.00;;;;;;;11.40;60.30;100746.77;106806;1299;22138;-66
2022/10/18 07:02:13;;;;;;;;;;;;;;;11.51;60.04;100743.72;106872;1299;22295;-67
2022/10/18 07:04:40;;;;;;;17.60;8.00;;;;;;;11.61;60.03;100742.12;106729;1299;125414;-67
2022/10/18 07:07:07;;;;;;;15.30;7.80;;;;;;;11.71;59.94;100736.02;106835;1293;22193;-66
2022/10/18 07:09:34;;;;;;;11.60;6.90;;;;;;;11.81;59.38;100731.35;106750;1299;139058;-66
2022/10/18 07:12:00;;;;;;;14.60;6.90;;;;;;;11.91;59.20;100728.14;106830;1302;22746;-66
2022/10/18 07:14:27;;;;;;;15.00;7.00;;;;;;;12.02;58.90;100724.67;106730;1299;137863;-66
2022/10/18 07:16:57;;;;;;;11.40;6.80;;;;;;;12.12;58.66;100721.34;106889;1300;22226;-65
2022/10/18 07:19:24;;;;;;;16.50;8.50;;;;;;;12.22;58.41;100719.02;106869;1303;22308;-65
2022/10/18 07:21:51;;;;;;;;;;;;;;;12.34;58.05;100724.95;106800;1300;138084;-64
2022/10/18 07:24:18;;;;;;;87.80;50.60;;;;;;;12.45;57.97;100719.55;106876;1300;22804;-66
2022/10/18 07:26:44;;;;;;;;;;;;;;;12.56;58.03;100711.21;106803;1303;138828;-63
2022/10/18 07:29:11;;;;;;;20.70;9.50;;;;;;;12.69;59.76;100710.65;106864;1300;22198;-62
2022/10/18 07:34:12;;;;;;;21.20;8.80;;;;;;;12.85;59.93;100709.18;99335;1338;545518;-59
2022/10/18 07:36:39;;;;;;;18.80;7.40;;;;;;;12.86;60.06;100707.86;105363;1322;22985;-63
2022/10/18 07:39:06;;;;;;;30.50;8.80;;;;;;;12.89;60.17;100710.77;105969;1312;137250;-59
2022/10/18 07:41:33;;;;;;;23.40;14.50;;;;;;;12.91;59.83;100710.98;101647;1315;24334;-58
2022/10/18 07:44:00;;;;;;;14.70;10.10;;;;;;;12.94;59.89;100706.83;101534;1302;26108;-58
2022/10/18 07:46:27;;;;;;;23.90;7.40;;;;;;;12.99;59.55;100704.67;106126;1310;138029;-60
2022/10/18 07:48:54;;;;;;;;;;;;;;;13.05;59.56;100701.01;105733;1309;940677;-59
2022/10/18 07:51:21;;;;;;;16.10;7.30;;;;;;;13.12;59.07;100698.67;106233;1309;124438;-58
2022/10/18 07:53:47;;;;;;;11.50;6.30;;;;;;;13.19;59.05;100695.38;106341;1301;22130;-58
2022/10/18 07:56:15;;;;;;;;;;;;;;;13.26;58.78;100692.73;106386;1308;22411;-58
2022/10/18 07:58:43;;;;;;;13.20;7.30;;;;;;;13.36;57.95;100688.20;106236;1309;124259;-58
2022/10/18 08:01:09;;;;;;;12.80;6.80;;;;;;;13.45;57.63;100686.80;106287;1309;22095;-59
2022/10/18 08:03:37;;;;;;;12.70;7.10;;;;;;;13.55;57.02;100686.09;106204;1295;138266;-59
2022/10/18 08:06:04;;;;;;;17.10;8.20;;;;;;;13.64;56.80;100678.36;106358;1301;23046;-59
2022/10/18 08:08:31;;;;;;;15.00;7.90;;;;;;;13.73;56.49;100679.20;106266;1309;137787;-58
2022/10/18 08:11:07;;;;;;;36.90;21.90;;;;;;;13.82;56.36;100676.71;106393;1301;22158;-59
2022/10/18 08:13:33;;;;;;;75.50;33.50;;;;;;;13.92;55.61;100673.19;106334;1309;22124;-59
2022/10/18 08:16:00;;;;;;;;;;;;;;;14.04;55.41;100670.29;106263;1309;138146;-59
2022/10/18 08:18:27;;;;;;;16.50;8.90;;;;;;;14.14;55.26;100662.65;106362;1304;22787;-59
2022/10/18 08:20:54;;;;;;;18.10;7.80;;;;;;;14.25;55.04;100659.52;106193;1309;138562;-59
2022/10/18 08:23:21;;;;;;;13.90;6.60;;;;;;;14.34;54.54;100660.66;106346;1309;22569;-59
2022/10/18 08:25:47;;;;;;;12.80;6.10;;;;;;;14.44;54.04;100658.58;106299;1301;22125;-59
2022/10/18 08:28:16;;;;;;;16.10;7.00;;;;;;;14.55;53.93;100657.61;106214;1301;138111;-58
2022/10/18 08:30:42;;;;;;;16.50;6.70;;;;;;;14.65;54.08;100654.92;106349;1309;22190;-59
2022/10/18 08:33:09;;;;;;;13.30;6.90;;;;;;;14.73;53.74;100649.86;106235;1301;137723;-58
2022/10/18 08:35:36;;;;;;;15.70;6.00;;;;;;;14.83;53.75;100646.52;106324;1307;22323;-59
2022/10/18 08:38:03;;;;;;;12.70;6.80;;;;;;;14.94;53.02;100643.23;106330;1309;22119;-59
2022/10/18 08:40:41;;;;;;;13.10;6.70;;;;;;;15.04;53.07;100634.36;103712;1301;137512;-58
2022/10/18 08:43:22;;;;;;;14.60;6.60;;;;;;;15.12;53.13;100631.42;101808;1316;22500;-59
2022/10/18 08:45:49;;;;;;;36.30;9.20;;;;;;;15.21;52.66;100625.95;101710;1294;138449;-59
2022/10/18 08:48:28;;;;;;;28.00;7.40;;;;;;;15.32;52.24;100625.93;101766;1316;22507;-59
2022/10/18 08:50:54;;;;;;;17.20;8.30;;;;;;;15.41;52.00;100619.52;101495;1305;138591;-58
2022/10/18 08:53:31;;;;;;;11.00;6.90;;;;;;;15.49;51.73;100616.23;101763;1311;22589;-58
2022/10/18 08:56:13;;;;;;;18.70;7.70;;;;;;;15.58;52.00;100616.33;101722;1302;25315;-59
2022/10/18 08:58:42;;;;;;;11.20;7.00;;;;;;;15.67;52.02;100617.92;101814;1284;137268;-59
2022/10/18 09:01:17;;;;;;;12.30;6.60;;;;;;;15.75;51.64;100611.60;106358;1309;22156;-60
2022/10/18 09:04:00;;;;;;;9.00;5.70;;;;;;;15.84;51.24;100607.77;106224;1301;137467;-59
2022/10/18 09:06:39;;;;;;;13.00;7.00;;;;;;;15.94;51.28;100605.61;106380;1309;22155;-60
2022/10/18 09:09:27;;;;;;;18.70;10.30;;;;;;;16.00;51.19;100602.96;106239;1309;138419;-59
2022/10/18 09:12:17;;;;;;;46.80;9.40;;;;;;;16.11;51.05;100594.48;106325;1309;22907;-60
2022/10/18 09:14:53;;;;;;;14.40;9.70;;;;;;;16.23;50.77;100591.02;106033;1303;138323;-60
2022/10/18 09:17:34;;;;;;;17.50;9.50;;;;;;;16.34;50.86;100587.46;106322;1309;22323;-60
2022/10/18 09:20:23;;;;;;;13.40;6.10;;;;;;;16.44;50.59;100587.79;106152;1304;22231;-60
2022/10/18 09:22:56;;;;;;;13.80;6.90;;;;;;;16.57;50.21;100586.16;105969;1311;22949;-58
2022/10/18 09:25:35;;;;;;;14.80;8.30;;;;;;;16.68;49.90;100577.74;106207;1310;22249;-58
2022/10/18 09:28:29;;;;;;;12.60;6.90;;;;;;;16.77;49.61;100575.60;106066;1309;138192;-58
2022/10/18 09:31:06;;;;;;;12.40;6.80;;;;;;;16.87;49.69;100570.11;106115;1308;22156;-60
2022/10/18 09:33:45;;;;;;;;;;;;;;;16.94;49.42;100567.48;105915;1305;138103;-60
2022/10/18 09:36:20;;;;;;;15.90;6.60;;;;;;;17.01;49.88;100561.83;106095;1311;22144;-60
2022/10/18 09:38:52;;;;;;;9.10;6.30;;;;;;;17.05;49.38;100561.64;105909;1312;138394;-60
2022/10/18 09:41:44;;;;;;;7.60;6.00;;;;;;;17.11;49.31;100552.95;106059;1309;22054;-60
2022/10/18 09:44:14;;;;;;;11.70;6.40;;;;;;;17.19;49.59;100550.39;105956;1311;22203;-59
2022/10/18 09:46:45;;;;;;;12.60;7.10;;;;;;;17.24;49.47;100546.87;106010;1311;138260;-59
2022/10/18 09:49:18;;;;;;;16.50;8.00;;;;;;;17.29;49.28;100541.69;105971;1310;22167;-60
2022/10/18 09:51:46;;;;;;;16.90;9.80;;;;;;;17.38;49.16;100534.41;105958;1304;137615;-60
2022/10/18 09:54:26;;;;;;;50.40;28.80;;;;;;;17.46;49.31;100530.36;105971;1314;22142;-60
2022/10/18 09:57:10;;;;;;;21.60;11.90;;;;;;;17.53;48.94;100526.65;106058;1310;138068;-60
2022/10/18 09:59:45;;;;;;;108.30;58.30;;;;;;;17.60;48.31;100518.81;106132;1296;22239;-60
2022/10/18 10:02:14;;;;;;;31.60;17.10;;;;;;;17.66;48.17;100511.98;106109;1311;22201;-60
2022/10/18 10:04:41;;;;;;;18.00;8.20;;;;;;;17.72;48.24;100507.79;106046;1311;137703;-60
2022/10/18 10:07:11;;;;;;;69.30;33.30;;;;;;;17.76;47.93;100503.17;106082;1305;22818;-60
2022/10/18 10:09:45;;;;;;;123.80;64.20;;;;;;;17.80;47.67;100500.20;106011;1309;138082;-59
2022/10/18 10:12:31;;;;;;;247.40;136.30;;;;;;;17.85;47.95;100494.95;106286;1309;22414;-62
2022/10/18 10:15:24;;;;;;;70.40;33.90;;;;;;;17.90;48.08;100489.73;106120;1311;138731;-63
2022/10/18 10:18:04;;;;;;;44.20;21.50;;;;;;;17.95;47.72;100489.27;106162;1310;23397;-68
2022/10/18 10:20:43;;;;;;;29.70;14.50;;;;;;;18.01;48.04;100488.80;105639;1311;137787;-64
2022/10/18 10:23:15;;;;;;;52.60;23.40;;;;;;;18.06;47.75;100484.73;106111;1311;22171;-66
2022/10/18 10:25:50;;;;;;;;;;;;;;;18.11;47.52;100483.28;106019;1308;22379;-63
2022/10/18 10:28:19;;;;;;;13.80;8.70;;;;;;;18.15;47.55;100477.37;105922;1304;123970;-64
2022/10/18 10:30:46;;;;;;;12.50;7.50;;;;;;;18.19;47.01;100469.60;106103;1311;22125;-65
2022/10/18 10:33:32;;;;;;;43.40;16.60;;;;;;;18.24;47.06;100472.94;106090;1310;140249;-65
2022/10/18 10:35:59;;;;;;;27.70;17.30;;;;;;;18.28;46.41;100467.85;106142;1311;22152;-64
2022/10/18 10:38:28;;;;;;;23.30;13.80;;;;;;;18.30;46.50;100464.70;106037;1311;139095;-64
2022/10/18 10:40:54;;;;;;;30.30;18.40;;;;;;;18.33;46.17;100463.06;102830;1311;22509;-63
2022/10/18 10:43:28;;;;;;;20.40;11.60;;;;;;;18.34;46.44;100458.30;101457;1313;23933;-64
2022/10/18 10:46:15;;;;;;;12.20;7.40;;;;;;;18.38;46.36;100458.39;106005;1311;138331;-64
2022/10/18 10:48:57;;;;;;;24.20;10.90;;;;;;;18.40;46.04;100449.55;106122;1311;23181;-64
2022/10/18 10:51:43;;;;;;;16.70;9.00;;;;;;;18.42;45.57;100440.82;105902;1310;138746;-64
2022/10/18 10:54:15;;;;;;;17.00;8.30;;;;;;;18.43;45.84;100435.95;106161;1312;22175;-65
2022/10/18 10:56:50;;;;;;;15.70;7.30;;;;;;;18.44;45.61;100432.38;106016;1302;138578;-64
2022/10/18 10:59:17;;;;;;;27.70;8.80;;;;;;;18.45;45.29;100428.39;105967;1311;22347;-62
2022/10/18 11:01:46;;;;;;;11.50;6.10;;;;;;;18.45;45.44;100427.01;105999;1312;22379;-62
2022/10/18 11:04:27;;;;;;;17.90;9.30;;;;;;;18.47;45.36;100422.51;106018;1311;137692;-62
2022/10/18 11:06:56;;;;;;;29.30;12.50;;;;;;;18.46;45.23;100422.69;106112;1311;22225;-63
2022/10/18 11:09:37;;;;;;;13.80;6.60;;;;;;;18.47;45.29;100420.91;106016;1311;137852;-63
2022/10/18 11:12:13;;;;;;;11.50;5.70;;;;;;;18.48;45.15;100415.54;106116;1296;22168;-62
2022/10/18 11:14:41;;;;;;;16.80;7.30;;;;;;;18.51;44.85;100414.69;106039;1310;138238;-63
2022/10/18 11:17:16;;;;;;;13.30;6.70;;;;;;;18.55;44.84;100405.34;106039;1312;22977;-63
2022/10/18 11:19:48;;;;;;;18.20;8.50;;;;;;;18.58;44.89;100397.38;106033;1310;23286;-64
2022/10/18 11:22:17;;;;;;;27.50;15.50;;;;;;;18.61;44.92;100395.80;106030;1311;137729;-67
2022/10/18 11:24:44;;;;;;;26.30;15.20;;;;;;;18.65;44.89;100390.48;106452;1305;22111;-62
2022/10/18 11:27:17;;;;;;;11.90;8.30;;;;;;;18.69;45.06;100388.95;106438;1305;138303;-62
2022/10/18 11:29:54;;;;;;;22.90;11.00;;;;;;;18.73;44.77;100381.08;106508;1290;22259;-62
2022/10/18 11:33:03;;;;;;;27.30;12.40;;;;;;;18.76;44.90;100379.66;106619;1303;22401;-59